Time;durP1;ratioP1;P1;durP2;ratioP2;P2;SDS_P1;SDS_P2;PMS_P1;PMS_P2;Temp;Humidity;BMP_temperature;BMP_pressure;BME280_temperature;BME280_humidity;BME280_pressure;Samples;Min_cycle;Max_cycle;Signal;HPM_P1;HPM_P2
2023/01/20 00:01:46;;;;;;;0.10;0.10;;;0.60;99.90;12.80;163505.00;;;;4976699;28;20210;-78
2023/01/20 00:04:17;;;;;;;0.10;0.10;;;0.60;99.90;12.80;163505.00;;;;4976762;28;20193;-77
2023/01/20 00:06:47;;;;;;;0.10;0.10;;;0.60;99.90;12.80;163505.00;;;;4976312;28;20291;-78
2023/01/20 00:09:17;;;;;;;0.10;0.10;;;0.50;99.90;12.80;163505.00;;;;4968320;28;20208;-78
2023/01/20 00:11:46;;;;;;;0.10;0.10;;;0.60;99.90;12.80;163505.00;;;;4976479;28;20737;-78
2023/01/20 00:14:14;;;;;;;0.10;0.10;;;0.60;99.90;12.80;163505.00;;;;4976536;28;20241;-78
2023/01/20 00:16:42;;;;;;;0.10;0.10;;;0.50;99.90;12.80;163505.00;;;;4976914;28;20248;-77
2023/01/20 00:19:13;;;;;;;0.10;0.10;;;0.50;99.90;12.80;163505.00;;;;4958959;28;20205;-78
2023/01/20 00:21:41;;;;;;;0.10;0.10;;;0.50;99.90;12.80;163505.00;;;;4976439;28;20205;-78
2023/01/20 00:24:11;;;;;;;0.10;0.10;;;0.60;99.90;12.80;163505.00;;;;4976953;28;20201;-78
2023/01/20 00:26:39;;;;;;;0.10;0.10;;;0.60;99.90;12.80;163505.00;;;;4976749;28;20252;-79
2023/01/20 00:29:08;;;;;;;0.10;0.10;;;0.60;99.90;12.80;163505.00;;;;4978348;28;20197;-79
2023/01/20 00:31:37;;;;;;;0.10;0.10;;;0.60;99.90;12.80;163505.00;;;;4960100;28;20619;-78
2023/01/20 00:34:05;;;;;;;0.10;0.10;;;0.50;99.90;12.80;163505.00;;;;4979790;28;20308;-78
2023/01/20 00:36:34;;;;;;;0.10;0.10;;;0.50;99.90;12.80;163505.00;;;;4962969;28;20257;-79
2023/01/20 00:39:02;;;;;;;0.10;0.10;;;0.50;99.90;12.80;163505.00;;;;4976016;28;20560;-77
2023/01/20 00:41:32;;;;;;;0.10;0.10;;;0.60;99.90;12.80;163505.00;;;;4976816;28;20201;-78
2023/01/20 00:44:00;;;;;;;0.10;0.10;;;0.60;99.90;12.80;163505.00;;;;4976912;28;20193;-78
2023/01/20 00:46:28;;;;;;;0.10;0.10;;;0.60;99.90;12.80;163505.00;;;;4975491;28;20626;-77
2023/01/20 00:48:56;;;;;;;0.10;0.10;;;0.70;99.90;12.80;163505.00;;;;4975149;28;20223;-77
2023/01/20 00:51:24;;;;;;;0.10;0.10;;;0.60;99.90;12.80;163505.00;;;;4975017;28;20264;-77
2023/01/20 00:53:52;;;;;;;0.10;0.10;;;0.60;99.90;12.80;163505.00;;;;4975284;28;20754;-77
2023/01/20 00:56:20;;;;;;;0.10;0.10;;;0.60;99.90;12.80;163505.00;;;;4975257;28;20753;-78
2023/01/20 00:58:49;;;;;;;0.10;0.10;;;0.60;99.90;12.80;163505.00;;;;4974610;28;20251;-78
2023/01/20 01:01:17;;;;;;;0.13;0.13;;;0.50;99.90;12.80;163505.00;;;;4975745;28;20205;-80
2023/01/20 01:03:45;;;;;;;0.10;0.10;;;0.60;99.90;12.80;163505.00;;;;4975182;28;20292;-78
2023/01/20 01:06:17;;;;;;;0.10;0.10;;;0.60;99.90;12.80;163505.00;;;;4978428;28;20228;-78
2023/01/20 01:08:45;;;;;;;0.10;0.10;;;0.70;99.90;12.80;163505.00;;;;4979576;28;20208;-79
2023/01/20 01:11:14;;;;;;;0.10;0.10;;;0.70;99.90;12.80;163505.00;;;;4990289;28;20609;-80
2023/01/20 01:13:42;;;;;;;0.10;0.10;;;0.60;99.90;12.80;163505.00;;;;4989436;28;20248;-79
2023/01/20 01:16:13;;;;;;;0.10;0.10;;;0.60;99.90;12.80;163505.00;;;;4975115;28;20239;-77
2023/01/20 01:18:42;;;;;;;0.13;0.13;;;0.70;99.90;12.80;163505.00;;;;4976047;28;20671;-78
2023/01/20 01:21:13;;;;;;;0.10;0.10;;;0.60;99.90;12.80;163505.00;;;;4977296;28;20205;-78
2023/01/20 01:23:41;;;;;;;0.10;0.10;;;0.60;99.90;12.80;163505.00;;;;4976468;28;20205;-78
2023/01/20 01:26:09;;;;;;;0.10;0.10;;;0.60;99.90;12.80;163505.00;;;;4977221;28;20213;-78
2023/01/20 01:28:38;;;;;;;0.20;0.20;;;0.60;99.90;12.80;163505.00;;;;4976850;28;20193;-79
2023/01/20 01:31:07;;;;;;;0.10;0.10;;;0.60;99.90;12.80;163505.00;;;;4976646;28;20204;-79
2023/01/20 01:33:37;;;;;;;0.10;0.10;;;0.70;99.90;12.80;163505.00;;;;4978996;28;20201;-79
2023/01/20 01:36:07;;;;;;;0.10;0.10;;;0.70;99.90;12.80;163505.00;;;;4958836;28;20444;-79
2023/01/20 01:38:35;;;;;;;0.10;0.10;;;0.70;99.90;12.80;163505.00;;;;4974014;28;20197;-79
2023/01/20 01:41:03;;;;;;;0.10;0.10;;;0.80;99.90;12.80;163505.00;;;;4976467;28;20193;-80
2023/01/20 01:43:35;;;;;;;0.10;0.10;;;0.70;99.90;12.80;163505.00;;;;4976014;28;20201;-80
2023/01/20 01:46:04;;;;;;;0.10;0.10;;;0.70;99.90;12.80;163505.00;;;;4978351;28;20224;-80
2023/01/20 01:48:39;;;;;;;0.10;0.10;;;0.70;99.90;12.80;163505.00;;;;4979669;28;20193;-77
2023/01/20 01:51:14;;;;;;;0.10;0.10;;;0.70;99.90;12.80;163505.00;;;;4974561;28;20708;-77
2023/01/20 01:53:52;;;;;;;0.10;0.10;;;0.70;99.90;12.80;163505.00;;;;4974657;28;20655;-77
2023/01/20 01:56:22;;;;;;;0.10;0.10;;;0.70;99.90;12.80;163505.00;;;;4975211;28;20736;-78
2023/01/20 01:58:55;;;;;;;0.17;0.17;;;0.80;99.90;12.80;163505.00;;;;4955970;28;20229;-75
2023/01/20 02:01:24;;;;;;;0.10;0.10;;;0.80;99.90;12.80;163505.00;;;;4974244;28;20260;-75
2023/01/20 02:04:00;;;;;;;0.10;0.10;;;0.80;99.90;12.80;163505.00;;;;4974179;28;20193;-75
2023/01/20 02:06:33;;;;;;;0.10;0.10;;;0.70;99.90;12.80;163505.00;;;;4974252;28;20592;-75
2023/01/20 02:09:04;;;;;;;0.10;0.10;;;0.70;99.90;12.80;163505.00;;;;4972501;28;20229;-75
2023/01/20 02:11:39;;;;;;;0.10;0.10;;;0.70;99.90;12.80;163505.00;;;;4973856;28;20197;-75
2023/01/20 02:14:08;;;;;;;0.10;0.10;;;0.70;99.90;12.80;163505.00;;;;4973754;28;20248;-75
2023/01/20 02:16:52;;;;;;;0.10;0.10;;;0.70;99.90;12.80;163505.00;;;;4973874;28;20231;-76
2023/01/20 02:19:59;;;;;;;0.20;0.20;;;0.70;99.90;12.80;163505.00;;;;4973318;28;20208;-76
2023/01/20 02:22:45;;;;;;;0.10;0.10;;;0.70;99.90;12.80;163505.00;;;;4973480;28;20546;-76
2023/01/20 02:26:22;;;;;;;0.10;0.10;;;0.70;99.90;12.80;163505.00;;;;4973749;28;20654;-76
2023/01/20 02:29:44;;;;;;;0.10;0.10;;;0.70;99.90;12.80;163505.00;;;;4932349;29;20206;-74
2023/01/20 02:32:32;;;;;;;0.10;0.10;;;0.80;99.90;12.80;163505.00;;;;4950904;28;20218;-74
2023/01/20 02:35:09;;;;;;;0.10;0.10;;;0.80;99.90;12.80;163505.00;;;;4974772;28;20193;-77
2023/01/20 02:37:47;;;;;;;0.10;0.10;;;0.80;99.90;12.80;163505.00;;;;4974374;28;20216;-76
2023/01/20 02:40:30;;;;;;;0.10;0.10;;;0.80;99.90;12.80;163505.00;;;;4975788;28;20201;-77
2023/01/20 02:43:11;;;;;;;0.10;0.10;;;0.80;99.90;12.80;163505.00;;;;4984305;28;20204;-76
2023/01/20 02:45:47;;;;;;;0.10;0.10;;;0.80;99.90;12.80;163505.00;;;;4989606;28;20634;-77
2023/01/20 02:48:26;;;;;;;0.10;0.10;;;0.80;99.90;12.80;163505.00;;;;4983389;28;20208;-76
2023/01/20 02:51:02;;;;;;;0.10;0.10;;;0.80;99.90;12.80;163505.00;;;;4972991;28;20609;-76
2023/01/20 02:53:37;;;;;;;0.20;0.20;;;0.90;99.90;12.80;163505.00;;;;4972505;28;20645;-77
2023/01/20 02:56:08;;;;;;;0.10;0.10;;;0.80;99.90;12.80;163505.00;;;;4954955;29;20650;-77
2023/01/20 02:58:46;;;;;;;0.10;0.10;;;0.80;99.90;12.80;163505.00;;;;4966386;28;20209;-77
2023/01/20 03:01:22;;;;;;;0.10;0.10;;;0.80;99.90;12.80;163505.00;;;;4972802;28;20211;-77
2023/01/20 03:03:56;;;;;;;0.10;0.10;;;0.80;99.90;12.80;163505.00;;;;4973086;28;20555;-77
2023/01/20 03:06:36;;;;;;;0.10;0.10;;;0.80;99.90;12.80;163505.00;;;;4973147;28;20240;-77
2023/01/20 03:09:10;;;;;;;0.17;0.17;;;0.70;99.90;12.80;163505.00;;;;4972261;28;20221;-76
2023/01/20 03:11:45;;;;;;;0.10;0.10;;;0.70;99.90;12.80;163505.00;;;;4972947;28;20201;-75
2023/01/20 03:14:15;;;;;;;0.10;0.10;;;0.70;99.90;12.80;163505.00;;;;4968345;28;20200;-75
2023/01/20 03:16:46;;;;;;;0.10;0.10;;;0.70;99.90;12.80;163505.00;;;;4972984;28;20790;-76
2023/01/20 03:19:19;;;;;;;0.10;0.10;;;0.60;99.90;12.80;163505.00;;;;4972150;28;20194;-76
2023/01/20 03:21:48;;;;;;;0.10;0.10;;;0.60;99.90;12.80;163505.00;;;;4973335;28;20275;-77
2023/01/20 03:24:16;;;;;;;0.13;0.13;;;0.60;99.90;12.80;163505.00;;;;4973648;28;20200;-79
2023/01/20 03:26:44;;;;;;;0.10;0.10;;;0.70;99.90;12.80;163505.00;;;;4973116;28;20219;-77
2023/01/20 03:29:14;;;;;;;0.10;0.10;;;0.70;99.90;12.80;163505.00;;;;4972144;28;20232;-77
2023/01/20 03:31:48;;;;;;;0.20;0.20;;;0.70;99.90;12.80;163505.00;;;;4972483;28;20283;-76
2023/01/20 03:34:21;;;;;;;0.10;0.10;;;0.60;99.90;12.80;163505.00;;;;4986042;28;20212;-76
2023/01/20 03:36:51;;;;;;;0.10;0.10;;;0.60;99.90;12.80;163505.00;;;;4975819;28;20224;-77
2023/01/20 03:39:20;;;;;;;0.10;0.10;;;0.60;99.90;12.80;163505.00;;;;4973411;28;20542;-76
2023/01/20 03:42:06;;;;;;;0.10;0.10;;;0.60;99.90;12.80;163505.00;;;;4992080;28;20572;-77
2023/01/20 03:44:57;;;;;;;0.10;0.10;;;0.60;99.90;12.80;163505.00;;;;4973808;28;20193;-76
2023/01/20 03:47:40;;;;;;;0.10;0.10;;;0.60;99.90;12.80;163505.00;;;;4972170;28;20217;-76
2023/01/20 03:50:26;;;;;;;0.10;0.10;;;0.60;99.90;12.80;163505.00;;;;4972346;28;20204;-76
2023/01/20 03:52:59;;;;;;;0.10;0.10;;;0.60;99.90;12.80;163505.00;;;;4969557;28;20204;-76
2023/01/20 03:55:37;;;;;;;0.10;0.10;;;0.60;99.90;12.80;163505.00;;;;4972425;28;20240;-76
2023/01/20 03:58:10;;;;;;;0.10;0.10;;;0.70;99.90;12.80;163505.00;;;;4954511;28;20259;-77
2023/01/20 04:00:44;;;;;;;0.10;0.10;;;0.60;99.90;12.80;163505.00;;;;4971367;28;20193;-77
2023/01/20 04:03:18;;;;;;;0.20;0.20;;;0.60;99.90;12.80;163505.00;;;;4975104;28;20208;-77
2023/01/20 04:05:49;;;;;;;0.10;0.10;;;0.60;99.90;12.80;163505.00;;;;4969970;28;20633;-77
2023/01/20 04:08:21;;;;;;;0.10;0.10;;;0.70;99.90;12.80;163505.00;;;;4981448;28;20217;-77
2023/01/20 04:10:52;;;;;;;0.10;0.10;;;0.70;99.90;12.80;163505.00;;;;4972822;28;20197;-78
2023/01/20 04:13:20;;;;;;;0.10;0.10;;;0.80;99.90;12.80;163505.00;;;;4972588;28;20212;-78
2023/01/20 04:15:48;;;;;;;0.10;0.10;;;0.80;99.90;12.80;163505.00;;;;4972378;28;20765;-79
2023/01/20 04:18:20;;;;;;;0.10;0.10;;;0.80;99.90;12.80;163505.00;;;;4972142;28;20577;-78
2023/01/20 04:20:57;;;;;;;0.10;0.10;;;0.80;99.90;12.80;163505.00;;;;4954868;28;20216;-77
2023/01/20 04:23:33;;;;;;;0.05;0.05;;;0.80;99.90;12.80;163505.00;;;;4972126;28;20212;-76
2023/01/20 04:26:01;;;;;;;0.10;0.10;;;0.80;99.90;12.80;163505.00;;;;4973954;28;20263;-77
2023/01/20 04:28:28;;;;;;;0.10;0.10;;;0.80;99.90;12.80;163505.00;;;;4978561;28;20236;-77
2023/01/20 04:30:56;;;;;;;0.10;0.10;;;0.90;99.90;12.80;163505.00;;;;4978545;28;20212;-76
2023/01/20 04:33:25;;;;;;;0.10;0.10;;;0.90;99.90;12.80;163505.00;;;;4976323;28;20214;-78
2023/01/20 04:35:54;;;;;;;0.10;0.10;;;1.00;99.90;12.80;163505.00;;;;4977082;28;20233;-77
2023/01/20 04:38:22;;;;;;;0.20;0.20;;;1.00;99.90;12.80;163505.00;;;;4974791;28;20709;-77
2023/01/20 04:40:50;;;;;;;0.10;0.10;;;1.00;99.90;12.80;163505.00;;;;4975949;28;20241;-77
2023/01/20 04:43:18;;;;;;;0.10;0.10;;;0.90;99.90;12.80;163505.00;;;;4975337;28;20201;-77
2023/01/20 04:45:46;;;;;;;0.10;0.10;;;0.90;99.90;12.80;163505.00;;;;4975569;28;20227;-77
2023/01/20 04:48:14;;;;;;;0.10;0.10;;;0.90;99.90;12.80;163505.00;;;;4973808;28;20213;-77
2023/01/20 04:50:42;;;;;;;0.10;0.10;;;1.00;99.90;12.80;163505.00;;;;4975464;28;20208;-77
2023/01/20 04:53:15;;;;;;;0.10;0.10;;;0.90;99.90;12.80;163505.00;;;;4974819;28;20249;-77
2023/01/20 04:55:46;;;;;;;0.10;0.10;;;1.00;99.90;12.80;163505.00;;;;4975755;28;20272;-78
2023/01/20 04:58:14;;;;;;;0.10;0.10;;;0.90;99.90;12.80;163505.00;;;;4975068;28;20201;-76
2023/01/20 05:00:42;;;;;;;0.10;0.10;;;0.90;99.90;12.80;163505.00;;;;4975549;28;20195;-77
2023/01/20 05:03:10;;;;;;;0.10;0.10;;;0.80;99.90;12.80;163505.00;;;;4975172;28;20205;-77
2023/01/20 05:05:38;;;;;;;0.10;0.10;;;0.70;99.90;12.80;163505.00;;;;4975266;28;20220;-78
2023/01/20 05:08:06;;;;;;;0.10;0.10;;;0.60;99.90;12.80;163505.00;;;;4974432;28;20197;-77
2023/01/20 05:10:36;;;;;;;0.10;0.10;;;0.60;99.90;12.80;163505.00;;;;4975319;28;20205;-78
2023/01/20 05:13:04;;;;;;;0.10;0.10;;;0.60;99.90;12.80;163505.00;;;;4975154;28;20248;-78
2023/01/20 05:15:31;;;;;;;0.10;0.10;;;0.50;99.90;12.80;163505.00;;;;4987654;28;20193;-76
2023/01/20 05:18:00;;;;;;;0.10;0.10;;;0.50;99.90;12.80;163505.00;;;;4973738;28;20193;-75
2023/01/20 05:20:28;;;;;;;0.10;0.10;;;0.50;99.90;12.80;163505.00;;;;4984842;28;20744;-75
2023/01/20 05:22:57;;;;;;;0.10;0.10;;;0.50;99.90;12.80;163505.00;;;;4990566;28;20197;-76
2023/01/20 05:25:28;;;;;;;0.20;0.20;;;0.50;99.90;12.80;163505.00;;;;4974317;28;20235;-76
2023/01/20 05:27:59;;;;;;;0.10;0.10;;;0.60;99.90;12.80;163505.00;;;;4974193;28;20280;-78
2023/01/20 05:30:42;;;;;;;0.10;0.10;;;0.60;99.90;12.80;163505.00;;;;4973756;28;20211;-78
2023/01/20 05:33:13;;;;;;;0.10;0.10;;;0.70;99.90;12.80;163505.00;;;;4974478;28;20284;-77
2023/01/20 05:35:41;;;;;;;0.10;0.10;;;0.70;99.90;12.80;163505.00;;;;4975049;28;20209;-77
2023/01/20 05:38:09;;;;;;;0.10;0.10;;;0.80;99.90;12.80;163505.00;;;;4974340;28;20260;-77
2023/01/20 05:40:37;;;;;;;0.10;0.10;;;0.80;99.90;12.80;163505.00;;;;4975125;28;20189;-78
2023/01/20 05:43:07;;;;;;;0.20;0.20;;;0.90;99.90;12.80;163505.00;;;;4974311;28;20197;-77
2023/01/20 05:45:35;;;;;;;0.10;0.10;;;0.90;99.90;12.80;163505.00;;;;4974598;28;20610;-79
2023/01/20 05:48:05;;;;;;;0.10;0.10;;;0.90;99.90;12.80;163505.00;;;;4973857;28;20201;-78
2023/01/20 05:50:33;;;;;;;0.10;0.10;;;0.90;99.90;12.80;163505.00;;;;4974483;28;20462;-79
2023/01/20 05:53:01;;;;;;;0.10;0.10;;;1.00;99.90;12.80;163505.00;;;;4965822;28;20216;-76
2023/01/20 05:55:29;;;;;;;0.10;0.10;;;1.00;99.90;12.80;163505.00;;;;4975344;28;20193;-76
2023/01/20 05:57:57;;;;;;;0.10;0.10;;;0.90;99.90;12.80;163505.00;;;;4975863;28;20208;-76
2023/01/20 06:00:26;;;;;;;0.10;0.10;;;1.00;99.90;12.80;163505.00;;;;4974667;28;20593;-78
2023/01/20 06:02:54;;;;;;;0.10;0.10;;;1.00;99.90;12.80;163505.00;;;;4976986;28;20197;-78
2023/01/20 06:05:22;;;;;;;0.10;0.10;;;0.90;99.90;12.80;163505.00;;;;4959088;28;20261;-78
2023/01/20 06:07:50;;;;;;;0.10;0.10;;;1.00;99.90;12.80;163505.00;;;;4957878;28;20193;-78
2023/01/20 06:10:18;;;;;;;0.20;0.20;;;1.00;99.90;12.80;163505.00;;;;4975784;28;20225;-78
2023/01/20 06:12:52;;;;;;;0.10;0.10;;;0.90;99.90;12.80;163505.00;;;;4975873;28;20189;-78
2023/01/20 06:15:20;;;;;;;0.10;0.10;;;0.90;99.90;12.80;163505.00;;;;4976796;28;20229;-79
2023/01/20 06:17:49;;;;;;;0.10;0.10;;;0.90;99.90;12.80;163505.00;;;;4974480;28;20193;-78
2023/01/20 06:20:18;;;;;;;0.10;0.10;;;1.00;99.90;12.80;163505.00;;;;4956078;28;20671;-77
2023/01/20 06:22:47;;;;;;;0.10;0.10;;;1.00;99.90;12.80;163505.00;;;;4974944;28;20189;-78
2023/01/20 06:25:15;;;;;;;0.10;0.10;;;1.00;99.90;12.80;163505.00;;;;4974316;28;20248;-78
2023/01/20 06:27:43;;;;;;;0.10;0.10;;;1.00;99.90;12.80;163505.00;;;;4974664;28;20201;-77
2023/01/20 06:30:11;;;;;;;0.10;0.10;;;1.10;99.90;12.80;163505.00;;;;4970709;28;20246;-77
2023/01/20 06:32:39;;;;;;;0.10;0.10;;;1.00;99.90;12.80;163505.00;;;;4974130;28;20565;-79
2023/01/20 06:35:09;;;;;;;0.10;0.10;;;1.00;99.90;12.80;163505.00;;;;4974642;28;20201;-78
2023/01/20 06:37:38;;;;;;;0.10;0.10;;;1.00;99.90;12.80;163505.00;;;;4973779;28;20853;-78
2023/01/20 06:40:07;;;;;;;0.10;0.10;;;0.90;99.90;12.80;163505.00;;;;4973263;28;20233;-78
2023/01/20 06:42:35;;;;;;;0.10;0.10;;;0.80;99.90;12.80;163505.00;;;;4973956;28;20666;-79
2023/01/20 06:45:06;;;;;;;0.10;0.10;;;0.80;99.90;12.80;163505.00;;;;4969459;28;20197;-80
2023/01/20 06:47:34;;;;;;;0.10;0.10;;;0.80;99.90;12.80;163505.00;;;;4973851;28;20224;-79
2023/01/20 06:50:02;;;;;;;0.10;0.10;;;0.70;99.90;12.80;163505.00;;;;4975182;28;20225;-78
2023/01/20 06:52:34;;;;;;;0.10;0.10;;;0.70;99.90;12.80;163505.00;;;;4986035;28;20245;-78
2023/01/20 06:55:02;;;;;;;0.10;0.10;;;0.70;99.90;12.80;163505.00;;;;4982791;28;20197;-79
2023/01/20 06:57:30;;;;;;;0.10;0.10;;;0.80;99.90;12.80;163505.00;;;;4978646;28;20229;-79
2023/01/20 06:59:58;;;;;;;0.17;0.17;;;0.80;99.90;12.80;163505.00;;;;4973531;28;20205;-79
2023/01/20 07:02:26;;;;;;;0.10;0.10;;;0.90;99.90;12.80;163505.00;;;;4961790;28;20205;-76
2023/01/20 07:04:54;;;;;;;0.10;0.10;;;0.90;99.90;12.80;163505.00;;;;4960339;29;20249;-77
2023/01/20 07:07:22;;;;;;;0.10;0.10;;;0.90;99.90;12.80;163505.00;;;;4970742;28;20248;-78
2023/01/20 07:09:54;;;;;;;0.10;0.10;;;0.90;99.90;12.80;163505.00;;;;4983339;28;20220;-78
2023/01/20 07:12:22;;;;;;;0.10;0.10;;;0.90;99.90;12.80;163505.00;;;;4965212;28;20213;-76
2023/01/20 07:14:50;;;;;;;0.10;0.10;;;0.90;99.90;12.80;163505.00;;;;4982358;28;20248;-79
2023/01/20 07:17:18;;;;;;;0.10;0.10;;;0.90;99.90;12.80;163505.00;;;;4982095;28;20220;-79
2023/01/20 07:19:46;;;;;;;0.10;0.10;;;0.90;99.90;12.80;163505.00;;;;4983985;28;20264;-77
2023/01/20 07:22:14;;;;;;;0.10;0.10;;;0.90;99.90;12.80;163505.00;;;;4984781;28;20233;-80
2023/01/20 07:24:42;;;;;;;0.10;0.10;;;0.90;99.90;12.80;163505.00;;;;4984225;28;20209;-79
2023/01/20 07:27:11;;;;;;;0.10;0.10;;;0.90;99.90;12.80;163505.00;;;;4986290;28;20244;-78
2023/01/20 07:29:41;;;;;;;0.10;0.10;;;1.00;99.90;12.80;163505.00;;;;4976022;28;20220;-77
2023/01/20 07:32:09;;;;;;;0.10;0.10;;;0.90;99.90;12.80;163505.00;;;;4972775;28;20204;-77
2023/01/20 07:34:37;;;;;;;0.10;0.10;;;0.90;99.90;12.80;163505.00;;;;4991649;28;20287;-76
2023/01/20 07:37:05;;;;;;;0.10;0.10;;;0.80;99.90;12.80;163505.00;;;;4979594;28;20213;-76
2023/01/20 07:39:35;;;;;;;0.10;0.10;;;0.80;99.90;12.80;163505.00;;;;4967439;28;20277;-76
2023/01/20 07:42:03;;;;;;;0.10;0.10;;;0.70;99.90;12.80;163505.00;;;;4972633;28;20201;-77
2023/01/20 07:44:33;;;;;;;0.10;0.10;;;0.70;99.90;12.80;163505.00;;;;4992059;28;20279;-76
2023/01/20 07:47:01;;;;;;;0.10;0.10;;;0.70;99.90;12.80;163505.00;;;;4979699;28;20781;-76
2023/01/20 07:49:29;;;;;;;0.10;0.10;;;0.70;99.90;12.80;163505.00;;;;4975528;28;20201;-77
2023/01/20 07:51:59;;;;;;;0.10;0.10;;;0.60;99.90;12.80;163505.00;;;;4973609;28;20193;-76
2023/01/20 07:54:27;;;;;;;0.20;0.20;;;0.60;99.90;12.80;163505.00;;;;4978699;28;20259;-76
2023/01/20 07:56:55;;;;;;;0.10;0.10;;;0.60;99.90;12.80;163505.00;;;;4981532;28;20585;-76
2023/01/20 07:59:23;;;;;;;0.10;0.10;;;0.60;99.90;12.80;163505.00;;;;4973814;28;20193;-76
2023/01/20 08:01:52;;;;;;;0.10;0.10;;;0.60;99.90;12.80;163505.00;;;;4980654;28;20189;-77
2023/01/20 08:04:20;;;;;;;0.10;0.10;;;0.60;99.90;12.80;163505.00;;;;4976502;28;20193;-76
2023/01/20 08:06:48;;;;;;;0.10;0.10;;;0.70;99.90;12.80;163505.00;;;;4976719;28;20228;-76
2023/01/20 08:09:16;;;;;;;0.10;0.10;;;0.70;99.90;12.80;163505.00;;;;4975386;28;20248;-76
2023/01/20 08:11:44;;;;;;;0.10;0.10;;;0.70;99.90;12.80;163505.00;;;;4976215;28;20220;-77
2023/01/20 08:14:12;;;;;;;0.10;0.10;;;0.60;99.90;12.80;163505.00;;;;4976162;28;20193;-77
2023/01/20 08:16:40;;;;;;;0.10;0.10;;;0.60;99.90;12.80;163505.00;;;;4957249;28;20210;-76
2023/01/20 08:19:10;;;;;;;0.10;0.10;;;0.60;99.90;12.80;163505.00;;;;4976031;28;20185;-77
2023/01/20 08:21:38;;;;;;;0.10;0.10;;;0.60;99.90;12.80;163505.00;;;;4976618;28;20240;-77
2023/01/20 08:24:06;;;;;;;0.10;0.10;;;0.50;99.90;12.80;163505.00;;;;4958553;28;20284;-78
2023/01/20 08:26:34;;;;;;;0.10;0.10;;;0.50;99.90;12.80;163505.00;;;;4976466;28;20674;-76
2023/01/20 08:29:05;;;;;;;0.10;0.10;;;0.40;99.90;12.80;163505.00;;;;4975715;28;20279;-76
2023/01/20 08:31:33;;;;;;;0.10;0.10;;;0.40;99.90;12.80;163505.00;;;;4976623;28;20224;-76
2023/01/20 08:34:02;;;;;;;0.10;0.10;;;0.40;99.90;12.80;163505.00;;;;4976130;28;20205;-75
2023/01/20 08:36:36;;;;;;;0.10;0.10;;;0.30;99.90;12.80;163505.00;;;;4976408;28;20228;-76
2023/01/20 08:39:07;;;;;;;0.10;0.10;;;0.30;99.90;12.80;163505.00;;;;4975620;28;20268;-75
2023/01/20 08:41:38;;;;;;;0.10;0.10;;;0.30;99.90;12.80;163505.00;;;;4976362;28;20272;-75
2023/01/20 08:44:07;;;;;;;0.10;0.10;;;0.30;99.90;12.80;163505.00;;;;4975671;28;20232;-75
2023/01/20 08:46:37;;;;;;;0.10;0.10;;;0.40;99.90;12.80;163505.00;;;;4976154;28;20216;-76
2023/01/20 08:49:10;;;;;;;0.10;0.10;;;0.40;99.90;12.80;163505.00;;;;4975414;28;20280;-75
2023/01/20 08:51:40;;;;;;;0.10;0.10;;;0.50;99.90;12.80;163505.00;;;;4975757;28;20225;-75
2023/01/20 08:54:08;;;;;;;0.10;0.10;;;0.60;99.90;12.80;163505.00;;;;4975138;28;20201;-75
2023/01/20 08:56:36;;;;;;;0.10;0.10;;;0.60;99.90;12.80;163505.00;;;;4975126;28;20229;-75
2023/01/20 08:59:04;;;;;;;0.10;0.10;;;0.70;99.90;12.80;163505.00;;;;4975376;28;20484;-75
2023/01/20 09:01:36;;;;;;;0.10;0.10;;;0.70;99.90;12.80;163505.00;;;;4975842;28;20197;-75
2023/01/20 09:04:05;;;;;;;0.10;0.10;;;0.80;99.90;12.80;163505.00;;;;4975476;28;20197;-75
2023/01/20 09:06:41;;;;;;;0.10;0.10;;;0.80;99.90;12.80;163505.00;;;;4975074;28;20232;-76
2023/01/20 09:09:11;;;;;;;0.10;0.10;;;0.80;99.90;12.80;163505.00;;;;4974613;28;20236;-76
2023/01/20 09:11:43;;;;;;;0.10;0.10;;;0.80;99.90;12.80;163505.00;;;;4973006;28;20263;-76
2023/01/20 09:14:11;;;;;;;0.10;0.10;;;0.70;99.90;12.80;163505.00;;;;4972926;28;20201;-78
2023/01/20 09:16:39;;;;;;;0.10;0.10;;;0.60;99.90;12.80;163505.00;;;;4973263;28;20217;-75
2023/01/20 09:19:07;;;;;;;0.10;0.10;;;0.60;99.90;12.80;163505.00;;;;4974746;28;20667;-76
2023/01/20 09:21:35;;;;;;;0.10;0.10;;;0.60;99.90;12.80;163505.00;;;;4974694;28;20628;-77
2023/01/20 09:24:05;;;;;;;0.10;0.10;;;0.50;99.90;12.80;163505.00;;;;4974989;28;20197;-76
2023/01/20 09:26:38;;;;;;;0.17;0.17;;;0.50;99.90;12.80;163505.00;;;;4974467;28;20245;-76
2023/01/20 09:29:10;;;;;;;0.10;0.10;;;0.60;99.90;12.80;163505.00;;;;4974620;28;20201;-77
2023/01/20 09:31:42;;;;;;;0.10;0.10;;;0.60;99.90;12.80;163505.00;;;;4975006;28;20280;-77
2023/01/20 09:34:18;;;;;;;0.10;0.10;;;0.60;99.90;12.80;163505.00;;;;4975591;28;20197;-76
2023/01/20 09:36:51;;;;;;;0.10;0.10;;;0.70;99.90;12.80;163505.00;;;;4991053;28;20700;-76
2023/01/20 09:45:24;;;;;;;0.17;0.17;;;1.10;99.90;12.80;163505.00;;;;4973883;28;20193;-76
2023/01/20 09:48:13;;;;;;;0.10;0.10;;;1.00;99.90;12.80;163505.00;;;;4975999;28;20220;-77
2023/01/20 09:53:50;;;;;;;0.10;0.10;;;1.00;99.90;12.80;163505.00;;;;4975993;28;20263;-76
2023/01/20 09:56:24;;;;;;;0.10;0.10;;;1.00;99.90;12.80;163505.00;;;;4974514;28;20696;-76
2023/01/20 09:59:01;;;;;;;0.10;0.10;;;1.00;99.90;12.80;163505.00;;;;4974303;28;20638;-78
2023/01/20 10:01:37;;;;;;;0.10;0.10;;;1.00;99.90;12.80;163505.00;;;;4974755;28;20197;-76
2023/01/20 10:04:15;;;;;;;0.10;0.10;;;1.00;99.90;12.80;163505.00;;;;4974749;28;20196;-77
2023/01/20 10:06:48;;;;;;;0.20;0.20;;;1.10;99.90;12.80;163505.00;;;;4974239;28;20213;-77
2023/01/20 10:09:25;;;;;;;0.10;0.10;;;1.00;99.90;12.80;163505.00;;;;4974083;28;20201;-76
2023/01/20 10:12:02;;;;;;;0.10;0.10;;;1.10;99.90;12.80;163505.00;;;;4970394;28;20229;-76
2023/01/20 10:14:37;;;;;;;0.20;0.20;;;1.10;99.90;12.80;163505.00;;;;4974136;28;20200;-76
2023/01/20 10:17:14;;;;;;;0.10;0.10;;;1.10;99.90;12.80;163505.00;;;;4974111;28;20578;-77
2023/01/20 10:19:50;;;;;;;0.10;0.10;;;1.20;99.90;12.80;163505.00;;;;4973478;28;20260;-76
2023/01/20 10:22:26;;;;;;;0.10;0.10;;;1.20;99.90;12.80;163505.00;;;;4973517;28;20201;-77
2023/01/20 10:25:04;;;;;;;0.10;0.10;;;1.30;99.90;12.80;163505.00;;;;4973176;28;20228;-76
2023/01/20 10:27:39;;;;;;;0.10;0.10;;;1.40;99.90;12.80;163505.00;;;;4955991;28;20308;-75
2023/01/20 10:30:11;;;;;;;0.10;0.10;;;1.30;99.90;12.80;163505.00;;;;4973371;28;20264;-75
2023/01/20 10:32:48;;;;;;;0.10;0.10;;;1.30;99.90;12.80;163505.00;;;;4973812;28;20256;-76
2023/01/20 10:35:22;;;;;;;0.10;0.10;;;1.30;99.90;12.80;163505.00;;;;4973437;28;20212;-77
2023/01/20 10:37:52;;;;;;;0.10;0.10;;;1.30;99.90;12.80;163505.00;;;;4973004;28;20615;-78
2023/01/20 10:40:34;;;;;;;0.10;0.10;;;1.40;99.90;12.80;163505.00;;;;4973827;28;20208;-77
2023/01/20 10:43:14;;;;;;;0.10;0.10;;;1.40;99.90;12.80;163505.00;;;;4973418;28;20292;-77
2023/01/20 10:46:01;;;;;;;0.10;0.10;;;1.40;99.90;12.80;163505.00;;;;4973751;28;20217;-78
2023/01/20 10:49:04;;;;;;;0.10;0.10;;;1.40;99.90;12.80;163505.00;;;;4974639;28;20256;-77
2023/01/20 10:51:42;;;;;;;0.10;0.10;;;1.50;99.90;12.80;163505.00;;;;4975969;28;20221;-77
2023/01/20 10:54:26;;;;;;;0.10;0.10;;;1.50;99.90;12.80;163505.00;;;;4983594;28;20193;-79
2023/01/20 10:56:58;;;;;;;0.10;0.10;;;1.70;99.90;12.80;163505.00;;;;4992195;28;20279;-76
2023/01/20 10:59:34;;;;;;;0.10;0.10;;;1.80;99.90;12.80;163505.00;;;;4991133;28;20204;-78
2023/01/20 11:02:14;;;;;;;0.10;0.10;;;1.90;99.90;12.80;163505.00;;;;4974260;28;20201;-78
2023/01/20 11:04:45;;;;;;;0.10;0.10;;;2.00;99.90;12.80;163505.00;;;;4974885;28;20696;-78
2023/01/20 11:07:18;;;;;;;0.10;0.10;;;2.10;99.90;12.80;163505.00;;;;4973618;28;20216;-76
2023/01/20 11:09:48;;;;;;;0.10;0.10;;;2.20;99.90;12.80;163505.00;;;;4973399;28;20276;-78
2023/01/20 11:12:22;;;;;;;0.10;0.10;;;2.20;99.90;12.80;163505.00;;;;4972828;28;20229;-77
2023/01/20 11:14:55;;;;;;;0.10;0.10;;;2.30;99.90;12.80;163505.00;;;;4973693;28;20748;-77
2023/01/20 11:17:23;;;;;;;0.10;0.10;;;2.40;99.90;12.80;163505.00;;;;4973289;28;20272;-77
2023/01/20 11:19:54;;;;;;;0.10;0.10;;;2.40;99.90;12.80;163505.00;;;;4973744;28;20197;-77
2023/01/20 11:22:29;;;;;;;0.10;0.10;;;2.50;99.90;12.80;163505.00;;;;4973791;28;20232;-77
2023/01/20 11:24:59;;;;;;;0.10;0.10;;;2.60;99.90;12.80;163505.00;;;;4974246;28;20204;-78